Time;durP1;ratioP1;P1;durP2;ratioP2;P2;SDS_P1;SDS_P2;PMS_P1;PMS_P2;Temp;Humidity;BMP_temperature;BMP_pressure;BME280_temperature;BME280_humidity;BME280_pressure;Samples;Min_cycle;Max_cycle;Signal;HPM_P1;HPM_P2
2022/05/30 00:01:20;;;;;;;;;2.00;2.00;;;;;14.80;47.83;100796.69;5109435;27;45039;-73
2022/05/30 00:03:46;;;;;;;;;1.00;1.00;;;;;14.78;47.75;100794.84;5114939;27;45565;-73
2022/05/30 00:06:15;;;;;;;;;2.00;2.00;;;;;14.81;48.08;100811.91;5134455;27;45088;-73
2022/05/30 00:08:41;;;;;;;;;6.50;2.00;;;;;14.72;47.99;100809.16;5112844;27;47083;-72
2022/05/30 00:11:10;;;;;;;;;3.75;2.00;;;;;14.78;48.59;100805.59;5129200;27;45149;-72
2022/05/30 00:13:36;;;;;;;;;2.00;2.00;;;;;14.60;48.56;100776.72;5127824;27;45198;-71
2022/05/30 00:16:12;;;;;;;;;3.00;3.00;;;;;14.78;48.62;100801.09;5132383;27;45533;-74
2022/05/30 00:18:38;;;;;;;;;1.00;1.00;;;;;14.76;48.73;100804.69;5132135;27;46296;-73
2022/05/30 00:21:04;;;;;;;;;2.00;2.00;;;;;14.72;48.59;100801.06;5132096;27;44939;-72
2022/05/30 00:23:30;;;;;;;;;5.50;5.00;;;;;14.57;48.80;100775.78;5113112;27;45140;-74
2022/05/30 00:25:55;;;;;;;;;10.00;8.25;;;;;14.66;48.67;100787.56;5108521;27;45172;-72
2022/05/30 00:28:22;;;;;;;;;12.25;10.50;;;;;14.67;49.53;100792.06;5106155;27;45453;-71
2022/05/30 00:30:48;;;;;;;;;15.00;13.75;;;;;14.65;49.10;100791.13;5114331;27;45591;-73
2022/05/30 00:33:14;;;;;;;;;17.25;17.00;;;;;14.40;49.20;100752.28;5101238;27;45371;-73
2022/05/30 00:35:41;;;;;;;;;13.25;13.25;;;;;14.57;49.80;100786.53;5107597;27;45481;-74
2022/05/30 00:38:08;;;;;;;;;18.00;13.75;;;;;14.39;49.76;100756.78;5130098;27;46757;-72
2022/05/30 00:40:36;;;;;;;;;18.75;16.25;;;;;14.30;49.48;100753.97;5109792;27;45473;-73
2022/05/30 00:43:21;;;;;;;;;12.75;11.25;;;;;14.56;49.77;100783.84;5132961;27;45135;-73
2022/05/30 00:45:47;;;;;;;;;9.50;9.00;;;;;14.05;49.75;100691.00;5116846;27;45230;-74
2022/05/30 00:48:13;;;;;;;;;7.00;7.00;;;;;14.46;49.38;100761.31;5113078;27;45738;-73
2022/05/30 00:50:39;;;;;;;;;6.75;6.75;;;;;14.55;49.93;100780.25;5113245;27;45274;-72
2022/05/30 00:53:06;;;;;;;;;4.75;4.75;;;;;14.55;50.11;100773.94;5113337;27;45156;-74
2022/05/30 00:55:32;;;;;;;;;5.00;3.00;;;;;14.23;50.77;100728.81;5113603;27;45009;-74
2022/05/30 00:57:57;;;;;;;;;5.50;4.00;;;;;14.18;50.49;100739.50;5128975;27;45343;-72
2022/05/30 01:00:25;;;;;;;;;3.50;1.75;;;;;14.37;50.63;100763.94;5132424;27;44962;-73
2022/05/30 01:08:28;;;;;;;;;3.25;3.25;;;;;14.38;50.92;100771.09;5110170;27;45120;-72
2022/05/30 01:10:53;;;;;;;;;2.00;2.00;;;;;14.35;50.80;100763.00;5123189;27;45305;-71
2022/05/30 01:13:18;;;;;;;;;3.00;3.00;;;;;14.16;51.01;100730.53;5132938;27;45032;-72
2022/05/30 01:15:44;;;;;;;;;3.00;3.00;;;;;14.11;51.06;100716.16;5129936;27;45044;-72
2022/05/30 01:18:20;;;;;;;;;3.00;3.00;;;;;14.35;51.09;100760.31;5113974;27;45413;-74
2022/05/30 01:21:15;;;;;;;;;3.00;2.00;;;;;14.29;51.08;100758.47;5113483;27;45250;-74
2022/05/30 01:24:14;;;;;;;;;5.25;3.00;;;;;14.28;51.07;100755.75;5125865;27;45282;-73
2022/05/30 01:26:47;;;;;;;;;3.25;2.00;;;;;14.25;51.67;100763.78;5108704;27;45268;-71
2022/05/30 01:29:23;;;;;;;;;2.67;2.67;;;;;13.97;51.63;100712.41;5120124;27;45814;-74
2022/05/30 01:31:48;;;;;;;;;4.67;2.00;;;;;14.15;51.74;100755.59;5120903;27;45483;-74
2022/05/30 01:34:13;;;;;;;;;4.50;2.75;;;;;13.80;52.10;100709.53;5117030;27;45553;-73
2022/05/30 01:36:39;;;;;;;;;2.50;2.00;;;;;13.94;51.59;100740.16;5108838;27;45064;-74
2022/05/30 01:39:04;;;;;;;;;2.00;2.00;;;;;13.92;52.22;100741.88;5105967;27;46439;-74
2022/05/30 01:41:30;;;;;;;;;3.00;3.00;;;;;13.65;52.48;100696.81;5104582;27;45086;-72
2022/05/30 01:43:56;;;;;;;;;2.00;2.00;;;;;14.04;52.37;100756.34;5096281;27;45608;-71
2022/05/30 01:46:23;;;;;;;;;4.00;2.00;;;;;14.04;52.08;100757.28;5101393;27;45536;-72
2022/05/30 01:48:49;;;;;;;;;2.00;2.00;;;;;13.84;52.39;100722.09;5097098;27;46221;-74
2022/05/30 01:51:16;;;;;;;;;6.00;4.00;;;;;14.03;52.49;100760.84;5098544;27;45405;-73
2022/05/30 01:53:41;;;;;;;;;8.00;5.50;;;;;14.04;52.13;100759.97;5097489;27;45330;-73
2022/05/30 01:56:07;;;;;;;;;4.50;4.00;;;;;14.00;51.79;100760.78;5103495;27;45298;-73
2022/05/30 01:58:33;;;;;;;;;3.50;3.50;;;;;13.96;52.39;100758.97;5096871;27;45529;-74
2022/05/30 02:01:14;;;;;;;;;5.75;4.00;;;;;13.32;52.50;100671.31;5096448;27;45190;-72
2022/05/30 02:03:39;;;;;;;;;3.00;3.00;;;;;13.88;52.63;100757.97;5111033;27;45507;-73
2022/05/30 02:06:04;;;;;;;;;5.00;4.00;;;;;13.68;52.45;100726.38;5099542;27;45388;-73
2022/05/30 02:08:30;;;;;;;;;8.25;5.75;;;;;13.74;52.31;100737.22;5099847;27;46024;-73
2022/05/30 02:10:55;;;;;;;;;4.25;2.25;;;;;13.90;52.14;100762.47;5111023;27;47610;-72
2022/05/30 02:13:21;;;;;;;;;3.00;1.50;;;;;13.73;52.25;100743.44;5108254;27;45401;-72
2022/05/30 02:18:30;;;;;;;;;4.00;4.00;;;;;13.90;52.38;100762.47;5128523;27;45445;-74
2022/05/30 02:20:55;;;;;;;;;3.00;3.00;;;;;13.76;52.55;100738.13;5125475;27;45411;-74
2022/05/30 02:23:21;;;;;;;;;3.25;3.25;;;;;13.59;52.59;100721.75;5123061;27;45458;-73
2022/05/30 02:25:46;;;;;;;;;2.75;2.75;;;;;13.72;52.83;100743.44;5119841;27;45447;-74
2022/05/30 02:28:11;;;;;;;;;3.00;3.00;;;;;13.72;53.25;100738.94;5113467;27;45919;-73
2022/05/30 02:30:37;;;;;;;;;4.75;4.75;;;;;13.71;52.90;100747.91;5130999;27;45352;-73
2022/05/30 02:38:31;;;;;;;;;6.00;4.00;;;;;13.63;52.71;100752.28;5118855;27;45439;-74
2022/05/30 02:40:56;;;;;;;;;2.75;2.75;;;;;13.51;53.57;100738.66;5114792;27;45100;-72
2022/05/30 02:43:21;;;;;;;;;3.00;3.00;;;;;13.64;53.26;100775.53;5114919;27;45274;-74
2022/05/30 02:45:47;;;;;;;;;5.25;3.50;;;;;13.61;53.31;100757.63;5117560;27;45193;-74
2022/05/30 02:48:12;;;;;;;;;6.25;3.50;;;;;13.63;53.22;100760.31;5125033;27;45056;-73
2022/05/30 02:50:38;;;;;;;;;3.75;3.75;;;;;13.65;53.90;100763.91;5129818;27;45036;-74
2022/05/30 02:53:03;;;;;;;;;4.00;3.00;;;;;13.60;53.86;100757.59;5125211;27;45458;-74
2022/05/30 02:55:29;;;;;;;;;3.25;3.25;;;;;13.67;53.40;100762.16;5125936;27;45608;-72
2022/05/30 02:57:54;;;;;;;;;6.50;5.50;;;;;13.61;53.62;100760.28;5124395;27;45652;-72
2022/05/30 03:00:20;;;;;;;;;17.75;15.25;;;;;13.41;53.16;100733.19;5119804;27;45341;-73
2022/05/30 03:02:45;;;;;;;;;6.75;3.00;;;;;13.52;53.86;100762.84;5099437;27;45346;-73
2022/05/30 03:05:10;;;;;;;;;4.00;4.00;;;;;13.54;53.91;100760.19;5096584;27;45492;-72
2022/05/30 03:07:36;;;;;;;;;4.75;4.00;;;;;13.25;54.08;100715.00;5102830;27;52221;-73
2022/05/30 03:10:03;;;;;;;;;4.00;3.50;;;;;13.09;53.96;100717.44;5113038;27;45199;-74
2022/05/30 03:12:29;;;;;;;;;2.00;2.00;;;;;13.38;53.48;100761.72;5112074;27;45346;-72
2022/05/30 03:14:54;;;;;;;;;5.00;5.00;;;;;13.33;53.95;100758.06;5120612;27;45098;-74
2022/05/30 03:17:20;;;;;;;;;5.25;4.50;;;;;13.24;54.88;100750.75;5110183;27;45226;-72
2022/05/30 03:19:45;;;;;;;;;4.25;3.25;;;;;11.95;54.42;100532.47;5106768;27;45636;-74
2022/05/30 03:22:10;;;;;;;;;7.00;5.00;;;;;12.94;54.82;100717.22;5106794;27;45447;-72
2022/05/30 03:24:36;;;;;;;;;4.75;3.75;;;;;13.04;53.93;100737.94;5114035;27;45408;-72
2022/05/30 03:27:01;;;;;;;;;3.00;3.00;;;;;13.20;54.13;100773.03;5111334;27;51395;-73
2022/05/30 03:29:26;;;;;;;;;4.25;4.25;;;;;13.11;53.94;100764.84;5107016;27;45443;-73
2022/05/30 03:31:53;;;;;;;;;3.75;3.75;;;;;13.20;54.59;100771.28;5124759;27;45333;-73
2022/05/30 03:34:18;;;;;;;;;7.33;3.00;;;;;13.22;54.52;100771.31;5119020;27;45528;-72
2022/05/30 03:36:43;;;;;;;;;4.50;4.50;;;;;13.09;53.97;100735.31;5099275;27;46115;-73
2022/05/30 03:39:09;;;;;;;;;5.00;5.00;;;;;13.00;54.63;100729.81;5105397;27;45403;-71
2022/05/30 03:41:34;;;;;;;;;3.25;2.50;;;;;13.12;53.97;100742.53;5127376;27;45363;-72
2022/05/30 03:44:00;;;;;;;;;5.00;5.00;;;;;13.21;54.00;100759.66;5123372;27;45494;-74
2022/05/30 03:46:30;;;;;;;;;6.50;4.00;;;;;13.04;54.08;100737.03;5115982;27;45394;-74
2022/05/30 03:48:56;;;;;;;;;5.00;4.00;;;;;13.00;54.08;100730.72;5114543;27;45098;-74
2022/05/30 03:51:21;;;;;;;;;8.25;6.25;;;;;13.26;54.73;100770.47;5113079;27;45314;-75
2022/05/30 03:53:47;;;;;;;;;10.00;8.25;;;;;12.98;54.14;100727.09;5111933;27;45452;-75
2022/05/30 03:56:12;;;;;;;;;6.00;6.00;;;;;13.29;53.97;100775.88;5100514;27;45999;-73
2022/05/30 03:58:38;;;;;;;;;5.00;5.00;;;;;13.21;54.10;100778.44;5110967;27;45385;-74
2022/05/30 04:01:06;;;;;;;;;7.50;6.00;;;;;13.05;54.57;100746.88;5118911;27;45398;-72
2022/05/30 04:03:32;;;;;;;;;4.75;4.75;;;;;13.19;53.95;100777.50;5111119;27;45252;-75
2022/05/30 04:05:58;;;;;;;;;5.75;4.00;;;;;13.22;53.74;100785.59;5128665;27;45253;-75
2022/05/30 04:08:23;;;;;;;;;4.00;4.00;;;;;13.16;54.57;100771.19;5108100;27;45574;-72
2022/05/30 04:10:49;;;;;;;;;4.00;4.00;;;;;13.00;54.41;100746.81;5110558;27;45349;-71
2022/05/30 04:13:14;;;;;;;;;7.75;4.75;;;;;13.17;54.72;100786.44;5109034;27;45364;-73
2022/05/30 04:15:39;;;;;;;;;6.50;6.50;;;;;12.95;55.30;100759.25;5110391;27;45429;-74
2022/05/30 04:18:06;;;;;;;;;5.25;5.00;;;;;13.08;55.01;100784.47;5104815;27;45671;-75
2022/05/30 04:20:32;;;;;;;;;4.25;4.25;;;;;13.16;55.17;100792.66;5107726;27;45424;-73
2022/05/30 04:22:57;;;;;;;;;8.00;5.00;;;;;13.14;54.37;100798.00;5097841;27;45444;-74
2022/05/30 04:25:23;;;;;;;;;6.75;6.00;;;;;13.11;54.44;100797.94;5115600;27;46387;-74
2022/05/30 04:27:48;;;;;;;;;6.00;5.00;;;;;13.12;54.87;100796.19;5125312;27;45310;-76
2022/05/30 04:30:14;;;;;;;;;7.00;6.00;;;;;13.12;54.67;100790.81;5121986;27;45276;-74
2022/05/30 04:32:39;;;;;;;;;11.25;8.00;;;;;13.18;54.08;100801.63;5095222;27;45303;-72
2022/05/30 04:35:06;;;;;;;;;6.00;6.00;;;;;13.03;53.80;100780.81;5120046;27;45781;-76
2022/05/30 04:37:32;;;;;;;;;6.75;6.75;;;;;13.09;54.13;100792.53;5107339;27;45056;-74
2022/05/30 04:39:57;;;;;;;;;4.00;3.75;;;;;13.05;54.55;100790.72;5130628;27;45096;-73
2022/05/30 04:42:23;;;;;;;;;6.25;5.00;;;;;12.81;54.03;100750.94;5128914;27;45264;-75
2022/05/30 04:44:49;;;;;;;;;9.25;5.75;;;;;12.49;54.16;100700.38;5126947;27;45264;-72
2022/05/30 04:47:14;;;;;;;;;6.00;6.00;;;;;12.71;54.14;100746.31;5115409;27;45016;-74
2022/05/30 04:49:39;;;;;;;;;6.00;4.75;;;;;12.87;54.54;100771.63;5106995;27;45487;-74
2022/05/30 04:52:06;;;;;;;;;6.00;6.00;;;;;12.78;54.49;100763.41;5099963;27;45307;-74
2022/05/30 04:54:31;;;;;;;;;4.00;4.00;;;;;13.04;54.48;100796.94;5095141;27;46207;-74
2022/05/30 04:56:57;;;;;;;;;7.50;5.50;;;;;13.03;54.08;100797.84;5081124;27;45428;-76
2022/05/30 04:59:22;;;;;;;;;6.00;5.25;;;;;12.89;54.20;100791.31;5103516;27;45417;-72
2022/05/30 05:01:48;;;;;;;;;7.00;6.00;;;;;13.01;54.54;100810.28;5103373;27;45778;-76
2022/05/30 05:04:14;;;;;;;;;8.50;7.00;;;;;13.05;54.73;100814.84;5127904;27;45983;-73
2022/05/30 05:06:43;;;;;;;;;8.00;6.50;;;;;12.85;54.56;100781.41;5114138;27;45361;-74
2022/05/30 05:09:17;;;;;;;;;5.00;4.00;;;;;13.13;54.09;100809.59;5114675;27;45261;-73
2022/05/30 05:11:45;;;;;;;;;7.25;6.00;;;;;12.81;53.89;100745.59;5117674;27;44984;-73
2022/05/30 05:14:10;;;;;;;;;8.75;7.25;;;;;12.94;54.36;100778.88;5112815;27;45012;-75
2022/05/30 05:16:37;;;;;;;;;6.25;5.00;;;;;13.14;53.93;100815.88;5124703;27;44993;-72
2022/05/30 05:19:03;;;;;;;;;7.00;4.25;;;;;13.14;53.39;100811.41;5125316;27;44895;-75
2022/05/30 05:21:32;;;;;;;;;5.00;3.50;;;;;13.15;53.93;100818.59;5107423;27;45612;-75
2022/05/30 05:23:59;;;;;;;;;6.75;6.50;;;;;12.95;54.39;100786.06;5113303;27;45792;-74
2022/05/30 05:26:25;;;;;;;;;9.00;8.25;;;;;12.80;53.31;100759.91;5112608;27;45064;-76
2022/05/30 05:28:51;;;;;;;;;30.00;28.00;;;;;13.18;53.01;100818.66;5117068;27;45270;-75
2022/05/30 05:31:25;;;;;;;;;7.50;6.75;;;;;13.21;54.43;100815.09;5126617;27;44914;-74
2022/05/30 05:33:52;;;;;;;;;7.00;7.00;;;;;13.07;53.28;100788.06;5127509;27;46951;-75
2022/05/30 05:36:23;;;;;;;;;6.00;6.00;;;;;13.30;53.18;100815.25;5121948;27;45299;-76
2022/05/30 05:38:50;;;;;;;;;19.00;15.75;;;;;13.28;53.63;100809.88;5115690;27;45406;-72
2022/05/30 05:41:15;;;;;;;;;11.25;8.25;;;;;13.02;53.45;100760.25;5112422;27;45285;-75
2022/05/30 05:43:40;;;;;;;;;14.25;10.00;;;;;13.07;53.21;100766.59;5112620;27;46055;-72
2022/05/30 05:46:15;;;;;;;;;5.25;4.25;;;;;13.32;52.88;100808.16;5114048;27;50980;-74
2022/05/30 05:48:40;;;;;;;;;6.00;6.00;;;;;13.22;52.76;100787.41;5113724;27;45204;-72
2022/05/30 05:51:05;;;;;;;;;8.50;6.50;;;;;13.42;53.35;100826.22;5108763;27;45271;-72
2022/05/30 05:53:31;;;;;;;;;9.75;8.00;;;;;13.45;53.28;100823.56;5079888;27;47054;-74
2022/05/30 05:55:56;;;;;;;;;9.00;6.00;;;;;13.40;52.85;100822.59;5103762;27;45481;-75
2022/05/30 05:58:22;;;;;;;;;8.50;7.00;;;;;13.45;52.63;100823.56;5081269;27;45597;-74
2022/05/30 06:00:47;;;;;;;;;7.25;5.75;;;;;13.57;52.62;100835.38;5115623;27;45590;-75
2022/05/30 06:03:12;;;;;;;;;7.25;7.00;;;;;13.39;52.46;100799.31;5110155;27;46365;-73
2022/05/30 06:05:41;;;;;;;;;10.25;8.75;;;;;13.42;52.97;100790.44;5125538;27;45005;-71
2022/05/30 06:08:10;;;;;;;;;6.25;6.25;;;;;13.66;52.14;100832.84;5116445;27;45258;-74
2022/05/30 06:11:04;;;;;;;;;9.50;9.00;;;;;13.72;52.53;100837.41;5114536;27;45174;-74
2022/05/30 06:13:21;;;;;;;;;7.50;7.50;;;;;13.69;52.32;100819.44;5111188;27;45867;-71
2022/05/30 06:15:46;;;;;;;;;12.00;8.75;;;;;13.69;52.44;100816.75;5110389;27;45239;-75
2022/05/30 06:18:11;;;;;;;;;9.00;6.00;;;;;13.87;52.19;100839.41;5120133;27;48285;-73
2022/05/30 06:20:37;;;;;;;;;37.50;33.50;;;;;13.54;52.41;100773.59;5119929;27;44961;-73
2022/05/30 06:23:03;;;;;;;;;10.25;9.00;;;;;13.82;51.48;100815.16;5109669;27;46030;-71
2022/05/30 06:25:28;;;;;;;;;11.25;8.00;;;;;13.71;51.95;100785.50;5093203;27;45431;-72
2022/05/30 06:27:53;;;;;;;;;15.00;13.00;;;;;13.89;52.15;100818.84;5077943;27;45299;-74
2022/05/30 06:30:19;;;;;;;;;12.75;10.50;;;;;14.10;51.94;100828.97;5096596;27;45559;-73
2022/05/30 06:32:44;;;;;;;;;6.50;6.50;;;;;14.15;51.84;100829.94;5109021;27;45458;-72
2022/05/30 06:35:09;;;;;;;;;7.50;7.25;;;;;14.12;51.43;100822.75;5115861;27;45440;-73
2022/05/30 06:37:35;;;;;;;;;9.25;7.75;;;;;14.21;51.24;100839.88;5107765;27;45128;-73
2022/05/30 06:40:00;;;;;;;;;11.50;9.50;;;;;14.24;51.25;100839.88;5106314;27;45487;-72
2022/05/30 06:42:26;;;;;;;;;8.00;6.25;;;;;14.16;51.10;100831.75;5097228;27;46664;-73
2022/05/30 06:44:51;;;;;;;;;10.00;10.00;;;;;14.16;50.80;100834.44;5105355;27;45406;-74
2022/05/30 06:47:16;;;;;;;;;10.25;8.75;;;;;14.12;51.41;100849.63;5084516;27;45381;-72
2022/05/30 06:49:42;;;;;;;;;5.00;5.00;;;;;14.24;51.11;100848.88;5102942;27;45532;-72
2022/05/30 06:52:08;;;;;;;;;7.25;5.75;;;;;14.23;50.21;100825.56;5096646;27;45472;-72
2022/05/30 06:54:33;;;;;;;;;7.50;6.00;;;;;14.38;49.80;100839.19;5096870;27;45462;-72
2022/05/30 06:59:43;;;;;;;;;6.50;5.00;;;;;14.51;50.09;100837.53;5097622;27;45507;-73
2022/05/30 07:02:08;;;;;;;;;6.75;5.25;;;;;14.55;50.17;100836.72;5097882;27;51293;-73
2022/05/30 07:04:35;;;;;;;;;12.75;7.50;;;;;14.61;49.81;100833.22;5098089;27;45476;-71
2022/05/30 07:07:05;;;;;;;;;10.00;8.75;;;;;14.56;49.91;100811.63;5098320;27;45495;-72
2022/05/30 07:09:30;;;;;;;;;5.00;5.00;;;;;14.72;49.37;100811.84;5098451;27;45363;-73
2022/05/30 07:11:55;;;;;;;;;6.25;3.75;;;;;14.78;49.17;100819.94;5096771;27;45612;-74
2022/05/30 07:14:21;;;;;;;;;15.50;8.75;;;;;15.00;49.04;100828.25;5096004;27;45448;-73
2022/05/30 07:16:46;;;;;;;;;6.00;6.00;;;;;15.11;48.77;100819.38;5096217;27;45364;-72
2022/05/30 07:19:11;;;;;;;;;6.75;5.00;;;;;15.19;48.52;100822.13;5096744;27;45421;-72
2022/05/30 07:21:39;;;;;;;;;14.75;11.50;;;;;15.07;48.30;100806.78;5096741;27;45312;-74
2022/05/30 07:24:05;;;;;;;;;6.00;6.00;;;;;15.28;48.16;100835.66;5096489;27;45510;-74
2022/05/30 07:26:30;;;;;;;;;6.25;5.75;;;;;14.67;48.02;100716.78;5096819;27;45360;-74
2022/05/30 07:28:56;;;;;;;;;6.25;5.25;;;;;15.46;47.59;100836.72;5097435;27;45751;-73
2022/05/30 07:31:25;;;;;;;;;9.00;8.75;;;;;15.56;47.28;100834.97;5096246;27;46146;-73
2022/05/30 07:33:51;;;;;;;;;6.00;6.00;;;;;15.63;47.39;100832.34;5115209;27;45484;-73
2022/05/30 07:36:21;;;;;;;;;4.25;4.25;;;;;15.70;46.48;100827.00;5115807;27;45405;-73
2022/05/30 07:38:47;;;;;;;;;12.50;9.75;;;;;15.77;46.43;100827.09;5116073;27;45247;-73
2022/05/30 07:41:12;;;;;;;;;9.75;6.00;;;;;15.82;46.06;100824.41;5115890;27;46621;-74
2022/05/30 07:43:38;;;;;;;;;13.75;11.25;;;;;15.95;46.36;100836.16;5116116;27;45310;-73
2022/05/30 07:46:05;;;;;;;;;7.00;5.50;;;;;16.00;45.56;100829.94;5116117;27;45966;-74
2022/05/30 07:48:31;;;;;;;;;4.25;4.25;;;;;15.85;45.22;100797.50;5116142;27;45422;-73
2022/05/30 07:50:58;;;;;;;;;6.75;5.75;;;;;15.98;45.41;100812.81;5115982;27;45979;-73
2022/05/30 07:53:25;;;;;;;;;6.50;4.50;;;;;15.97;45.37;100793.94;5116018;27;45239;-74
2022/05/30 07:55:50;;;;;;;;;9.25;7.50;;;;;16.27;44.69;100824.63;5116043;27;45378;-74
2022/05/30 07:58:16;;;;;;;;;6.50;6.50;;;;;16.33;44.25;100821.97;5116243;27;45584;-74
2022/05/30 08:00:41;;;;;;;;;5.67;5.67;;;;;16.39;43.27;100813.91;5115462;27;45484;-73
2022/05/30 08:03:11;;;;;;;;;10.50;8.75;;;;;16.48;42.93;100821.13;5115997;27;45522;-75
2022/05/30 08:05:38;;;;;;;;;5.75;3.50;;;;;16.54;43.44;100822.03;5115918;27;45320;-72
2022/05/30 08:08:04;;;;;;;;;6.75;6.75;;;;;16.38;42.97;100786.06;5115070;27;45456;-74
2022/05/30 08:10:29;;;;;;;;;3.33;1.67;;;;;16.54;42.03;100804.97;5115400;27;45483;-73
2022/05/30 08:12:54;;;;;;;;;2.67;2.33;;;;;16.59;41.28;100798.69;5115162;27;45415;-71
2022/05/30 08:15:20;;;;;;;;;5.33;2.00;;;;;16.67;41.75;100812.19;5115674;27;45333;-73
2022/05/30 08:17:45;;;;;;;;;3.33;2.67;;;;;16.64;41.37;100795.09;5116062;27;45408;-73
2022/05/30 08:20:14;;;;;;;;;4.00;3.00;;;;;16.82;41.83;100822.13;5115252;27;49260;-72
2022/05/30 08:22:39;;;;;;;;;2.00;2.00;;;;;16.83;41.25;100812.22;5115552;27;45548;-75
2022/05/30 08:25:08;;;;;;;;;3.67;2.00;;;;;17.01;41.08;100814.06;5115230;27;45571;-74
2022/05/30 08:27:34;;;;;;;;;4.67;2.67;;;;;17.10;40.79;100814.97;5097011;27;45496;-74
2022/05/30 08:29:59;;;;;;;;;5.00;4.33;;;;;16.71;40.48;100749.28;5114964;27;45865;-74
2022/05/30 08:32:31;;;;;;;;;9.75;7.25;;;;;17.17;40.53;100815.88;5115292;27;45437;-73
2022/05/30 08:34:59;;;;;;;;;4.67;4.67;;;;;17.26;40.17;100817.72;5116076;27;45474;-73
2022/05/30 08:37:30;;;;;;;;;8.00;4.33;;;;;17.29;40.01;100810.50;5115754;27;45243;-74
2022/05/30 08:42:40;;;;;;;;;6.33;6.33;;;;;17.42;40.12;100803.28;5115083;27;45380;-74
2022/05/30 08:45:09;;;;;;;;;3.00;3.00;;;;;17.50;39.89;100804.19;5114950;27;45335;-72
2022/05/30 08:47:40;;;;;;;;;2.00;2.00;;;;;17.60;39.20;100806.84;5098716;27;45458;-72
2022/05/30 08:50:39;;;;;;;;;4.33;3.00;;;;;17.71;38.67;100806.84;5095105;27;46470;-73
2022/05/30 08:53:20;;;;;;;;;8.00;5.00;;;;;17.75;38.12;100796.03;5106124;27;45608;-74
2022/05/30 08:56:24;;;;;;;;;7.67;7.67;;;;;17.68;37.33;100773.50;5116235;27;45364;-73
2022/05/30 08:59:05;;;;;;;;;5.67;5.67;;;;;17.93;37.44;100805.00;5083389;27;45439;-74
2022/05/30 09:01:39;;;;;;;;;12.67;6.33;;;;;17.79;37.25;100759.09;5115382;27;45342;-74
2022/05/30 09:04:17;;;;;;;;;4.00;3.00;;;;;17.84;37.50;100765.38;5105550;27;45597;-71
2022/05/30 09:06:48;;;;;;;;;2.00;2.00;;;;;17.97;37.08;100768.97;5095549;27;45419;-70
2022/05/30 09:09:22;;;;;;;;;3.00;2.00;;;;;17.89;37.06;100727.56;5097104;27;45487;-78
2022/05/30 09:11:57;;;;;;;;;1.33;1.33;;;;;18.24;36.12;100749.91;5101844;27;45466;-72
2022/05/30 09:14:30;;;;;;;;;1.00;1.00;;;;;18.44;36.09;100756.13;5109145;27;45589;-71
2022/05/30 09:17:01;;;;;;;;;2.67;2.00;;;;;18.85;35.92;100803.72;5096042;27;45606;-72
2022/05/30 09:19:27;;;;;;;;;7.33;6.67;;;;;18.34;35.00;100714.69;5096716;27;45255;-73
2022/05/30 09:22:01;;;;;;;;;3.33;3.33;;;;;18.72;34.78;100790.22;5114831;27;45524;-74
2022/05/30 09:24:30;;;;;;;;;3.00;3.00;;;;;18.42;35.27;100723.66;5096181;27;45369;-72
2022/05/30 09:26:57;;;;;;;;;3.67;2.33;;;;;18.86;34.85;100806.41;5097886;27;45573;-77
2022/05/30 09:29:29;;;;;;;;;11.00;8.33;;;;;18.53;35.08;100753.38;5098135;27;45411;-71
2022/05/30 09:32:16;;;;;;;;;2.00;0.33;;;;;18.92;34.27;100792.84;5115239;27;45294;-74
2022/05/30 09:34:46;;;;;;;;;1.33;1.33;;;;;18.18;33.70;100663.44;5098031;27;45400;-75
2022/05/30 09:37:38;;;;;;;;;3.00;1.00;;;;;18.17;33.73;100696.78;5115497;27;45235;-74
2022/05/30 09:40:04;;;;;;;;;6.33;4.67;;;;;18.85;34.91;100776.63;5099115;27;45668;-67
2022/05/30 09:42:35;;;;;;;;;16.50;11.50;;;;;18.57;34.90;100720.84;5113376;27;46128;-68
2022/05/30 09:45:24;;;;;;;;;3.00;3.00;;;;;19.03;33.70;100784.63;5114022;27;45369;-70
2022/05/30 09:48:04;;;;;;;;;2.00;2.00;;;;;18.60;33.40;100710.00;5113940;27;45401;-69
2022/05/30 09:50:29;;;;;;;;;7.00;4.00;;;;;18.89;33.84;100744.13;5108044;27;45394;-70
2022/05/30 09:52:55;;;;;;;;;1.33;1.33;;;;;18.83;33.57;100725.22;5114421;27;46453;-68
2022/05/30 09:55:25;;;;;;;;;10.33;8.00;;;;;19.19;34.14;100776.34;5100730;27;45619;-68
2022/05/30 09:57:53;;;;;;;;;2.00;2.00;;;;;19.24;33.54;100767.28;5107806;27;45373;-70
2022/05/30 10:00:20;;;;;;;;;2.00;2.00;;;;;19.28;33.44;100774.47;5107709;27;45315;-70
2022/05/30 10:02:58;;;;;;;;;0.00;0.00;;;;;19.15;33.14;100752.03;5114153;27;46120;-71
2022/05/30 10:05:28;;;;;;;;;2.33;2.00;;;;;19.15;32.97;100752.03;5113700;27;45442;-72
2022/05/30 10:07:56;;;;;;;;;1.00;1.00;;;;;19.06;33.11;100732.25;5113827;27;45449;-71
2022/05/30 10:10:31;;;;;;;;;3.67;2.00;;;;;19.02;33.19;100719.63;5114017;27;45523;-68
2022/05/30 10:12:58;;;;;;;;;1.00;1.00;;;;;19.29;32.90;100765.44;5095308;27;46251;-69
2022/05/30 10:15:29;;;;;;;;;3.00;3.00;;;;;19.17;33.45;100762.81;5113531;27;45450;-69
2022/05/30 10:17:57;;;;;;;;;3.33;3.33;;;;;18.82;33.91;100727.91;5113700;27;45323;-71
2022/05/30 10:20:36;;;;;;;;;5.00;4.00;;;;;18.87;33.95;100739.63;5094994;27;45543;-72
2022/05/30 10:29:52;;;;;;;;;1.33;1.33;;;;;19.00;33.77;100762.97;5049199;28;45471;-70
2022/05/30 10:32:30;;;;;;;;;2.00;2.00;;;;;19.12;33.83;100756.56;5075572;27;45538;-70
2022/05/30 10:35:08;;;;;;;;;3.00;3.00;;;;;19.18;33.81;100764.63;5090767;27;45689;-71
2022/05/30 10:38:06;;;;;;;;;34.67;24.00;;;;;19.23;33.37;100765.47;5096273;27;45625;-70
2022/05/30 10:40:57;;;;;;;;;1.00;1.00;;;;;19.26;33.36;100770.88;5096647;27;45495;-69
2022/05/30 10:43:35;;;;;;;;;1.67;1.67;;;;;19.24;33.09;100761.88;5097131;27;45642;-70
2022/05/30 10:46:04;;;;;;;;;1.67;1.00;;;;;19.03;33.09;100730.47;5096450;27;45546;-71
2022/05/30 10:48:37;;;;;;;;;5.67;3.00;;;;;18.86;33.31;100714.38;5096103;27;45413;-69
2022/05/30 10:51:14;;;;;;;;;2.00;2.00;;;;;19.17;33.27;100752.00;5096004;27;45789;-71
2022/05/30 10:53:47;;;;;;;;;3.00;3.00;;;;;19.24;33.01;100769.13;5096237;27;45440;-70
2022/05/30 10:56:40;;;;;;;;;3.67;3.00;;;;;19.19;33.17;100754.69;5095540;27;47106;-69
2022/05/30 10:59:21;;;;;;;;;2.67;2.67;;;;;19.20;32.58;100759.19;5095557;27;45467;-71
2022/05/30 11:01:59;;;;;;;;;21.00;18.25;;;;;19.13;32.77;100756.53;5096011;27;45357;-69
2022/05/30 11:04:39;;;;;;;;;3.00;3.00;;;;;19.22;32.89;100769.13;5083217;27;45473;-71
2022/05/30 11:07:26;;;;;;;;;4.00;4.00;;;;;19.22;32.15;100762.78;5076013;27;46438;-70
2022/05/30 11:10:37;;;;;;;;;4.33;2.00;;;;;19.02;32.20;100725.06;5075938;27;45514;-68
2022/05/30 11:13:36;;;;;;;;;3.67;3.00;;;;;18.97;31.97;100725.09;5092680;27;45275;-71
2022/05/30 11:16:07;;;;;;;;;3.33;2.33;;;;;18.97;31.92;100735.91;5094878;27;45417;-71
2022/05/30 11:18:57;;;;;;;;;3.00;3.00;;;;;18.94;31.99;100731.44;5095839;27;45991;-71
2022/05/30 11:21:40;;;;;;;;;1.00;1.00;;;;;19.06;31.40;100746.69;5095659;27;45411;-71
2022/05/30 11:24:06;;;;;;;;;4.67;3.00;;;;;18.89;31.96;100724.25;5095840;27;45362;-70
2022/05/30 11:27:04;;;;;;;;;3.00;3.00;;;;;19.18;32.22;100761.03;5095917;27;45559;-71
2022/05/30 11:29:51;;;;;;;;;2.33;2.33;;;;;19.03;31.64;100724.16;5100711;27;45724;-71
2022/05/30 11:32:30;;;;;;;;;2.00;2.00;;;;;19.19;31.24;100761.03;5116633;27;45987;-70
2022/05/30 11:35:23;;;;;;;;;2.00;2.00;;;;;18.93;31.40;100710.69;5115989;27;45375;-70
2022/05/30 11:37:51;;;;;;;;;2.00;2.00;;;;;19.28;31.32;100744.66;5117007;27;45358;-70
2022/05/30 11:40:25;;;;;;;;;2.00;2.00;;;;;19.42;30.50;100740.91;5117269;27;46402;-70
2022/05/30 11:43:13;;;;;;;;;6.33;4.00;;;;;19.60;30.83;100748.88;5116053;27;45481;-68
2022/05/30 11:45:57;;;;;;;;;2.33;2.33;;;;;19.77;30.28;100746.00;5116009;27;44868;-68
2022/05/30 11:48:56;;;;;;;;;2.00;1.33;;;;;19.88;30.09;100727.78;5115728;27;45576;-70
2022/05/30 11:51:40;;;;;;;;;8.33;6.00;;;;;20.04;29.67;100739.31;5096683;27;46682;-70
2022/05/30 11:54:47;;;;;;;;;2.67;2.00;;;;;20.11;30.09;100736.53;5116019;27;45587;-71
2022/05/30 11:57:24;;;;;;;;;2.00;2.00;;;;;20.16;30.04;100740.09;5075907;27;45513;-68
2022/05/30 12:00:07;;;;;;;;;2.00;2.00;;;;;20.27;29.95;100732.72;5096305;27;45376;-71
2022/05/30 12:02:54;;;;;;;;;5.00;3.00;;;;;20.19;29.31;100712.94;5095395;27;47041;-70